Time;durP1;ratioP1;P1;durP2;ratioP2;P2;SDS_P1;SDS_P2;PMS_P1;PMS_P2;Temp;Humidity;BMP_temperature;BMP_pressure;BME280_temperature;BME280_humidity;BME280_pressure;Samples;Min_cycle;Max_cycle;Signal;HPM_P1;HPM_P2
2023/05/21 00:02:17;;;;;;;16.45;7.28;;;18.20;92.10;;;;;;4985015;28;20061;-53
2023/05/21 00:04:43;;;;;;;7.55;6.75;;;18.10;92.10;;;;;;4985467;28;20026;-54
2023/05/21 00:07:09;;;;;;;10.20;6.60;;;18.10;92.00;;;;;;4985404;28;20115;-53
2023/05/21 00:09:37;;;;;;;9.15;6.90;;;18.10;92.00;;;;;;5016341;28;20031;-53
2023/05/21 00:12:03;;;;;;;9.85;7.10;;;18.10;92.10;;;;;;4985879;28;20057;-53
2023/05/21 00:14:29;;;;;;;8.27;7.28;;;18.10;92.10;;;;;;4984839;28;20031;-53
2023/05/21 00:16:54;;;;;;;12.43;6.97;;;18.00;92.10;;;;;;4985327;28;20045;-53
2023/05/21 00:19:20;;;;;;;8.20;6.70;;;18.00;92.20;;;;;;4983807;28;20038;-53
2023/05/21 00:21:45;;;;;;;12.68;7.75;;;18.10;92.20;;;;;;4986591;28;20067;-53
2023/05/21 00:24:11;;;;;;;14.10;7.57;;;18.00;92.20;;;;;;4984950;28;20078;-53
2023/05/21 00:26:36;;;;;;;8.27;6.30;;;18.00;92.30;;;;;;4984050;28;20042;-53
2023/05/21 00:29:02;;;;;;;9.05;7.13;;;18.00;92.30;;;;;;4985177;28;20031;-53
2023/05/21 00:31:28;;;;;;;9.45;7.20;;;18.00;92.30;;;;;;4984249;28;20023;-53
2023/05/21 00:33:54;;;;;;;9.07;6.93;;;17.90;92.30;;;;;;4985695;28;20042;-54
2023/05/21 00:36:22;;;;;;;10.43;7.35;;;17.90;92.30;;;;;;4985483;28;20045;-53
2023/05/21 00:38:48;;;;;;;10.65;7.03;;;17.90;92.40;;;;;;4985318;28;20027;-53
2023/05/21 00:41:14;;;;;;;8.15;6.93;;;17.90;92.40;;;;;;4984896;28;20391;-53
2023/05/21 00:43:39;;;;;;;9.20;6.80;;;17.90;92.40;;;;;;4984102;28;20037;-53
2023/05/21 00:46:06;;;;;;;9.05;6.60;;;17.90;92.40;;;;;;4965176;28;20030;-53
2023/05/21 00:48:32;;;;;;;10.02;6.80;;;17.90;92.40;;;;;;4967102;28;20477;-54
2023/05/21 00:50:57;;;;;;;9.05;7.18;;;17.80;92.40;;;;;;4984282;28;20038;-53
2023/05/21 00:53:23;;;;;;;8.65;7.15;;;17.80;92.50;;;;;;4984951;28;20031;-53
2023/05/21 00:55:49;;;;;;;9.38;7.07;;;17.80;92.50;;;;;;4972535;28;20483;-53
2023/05/21 00:58:16;;;;;;;8.43;6.88;;;17.80;92.50;;;;;;4987617;28;20034;-54
2023/05/21 01:00:42;;;;;;;9.90;6.60;;;17.80;92.50;;;;;;4987809;28;20071;-53
2023/05/21 01:03:07;;;;;;;8.25;7.25;;;17.70;92.50;;;;;;4988061;28;20042;-53
2023/05/21 01:05:34;;;;;;;8.48;6.47;;;17.70;92.60;;;;;;4989242;28;20031;-53
2023/05/21 01:08:00;;;;;;;15.63;7.30;;;17.70;92.60;;;;;;4988328;28;20031;-53
2023/05/21 01:10:25;;;;;;;9.15;7.40;;;17.80;92.60;;;;;;4968494;28;20042;-54
2023/05/21 01:12:51;;;;;;;8.35;6.63;;;17.70;92.60;;;;;;4969115;28;20143;-53
2023/05/21 01:15:17;;;;;;;10.07;7.15;;;17.70;92.70;;;;;;4984615;28;20039;-53
2023/05/21 01:17:44;;;;;;;8.80;7.13;;;17.70;92.70;;;;;;4988940;28;20039;-53
2023/05/21 01:20:10;;;;;;;8.60;7.25;;;17.70;92.70;;;;;;5020289;28;20027;-53
2023/05/21 01:22:56;;;;;;;11.98;7.35;;;17.70;92.60;;;;;;4989539;28;20105;-53
2023/05/21 01:25:22;;;;;;;12.18;7.72;;;17.70;92.70;;;;;;4989177;28;20054;-53
2023/05/21 01:27:48;;;;;;;10.82;7.03;;;17.70;92.70;;;;;;4988224;28;20070;-53
2023/05/21 01:30:15;;;;;;;9.65;6.85;;;17.60;92.70;;;;;;4987987;28;20048;-53
2023/05/21 01:32:52;;;;;;;8.23;6.93;;;17.60;92.70;;;;;;4989433;28;20027;-54
2023/05/21 01:35:22;;;;;;;10.95;7.28;;;17.60;92.80;;;;;;4988115;28;20058;-53
2023/05/21 01:38:08;;;;;;;8.00;6.85;;;17.50;92.80;;;;;;4987894;28;20479;-53
2023/05/21 01:40:45;;;;;;;11.20;7.15;;;17.60;92.90;;;;;;4987949;28;20058;-53
2023/05/21 01:43:10;;;;;;;10.82;7.50;;;17.50;92.80;;;;;;4987972;28;20126;-53
2023/05/21 01:45:38;;;;;;;7.65;6.55;;;17.50;92.90;;;;;;4987890;28;20132;-53
2023/05/21 01:48:04;;;;;;;10.65;7.07;;;17.50;92.90;;;;;;4987886;28;20091;-53
2023/05/21 01:50:31;;;;;;;10.60;6.75;;;17.50;93.00;;;;;;4987765;28;20023;-53
2023/05/21 01:52:57;;;;;;;9.32;7.05;;;17.50;93.00;;;;;;4987590;28;20155;-53
2023/05/21 01:55:23;;;;;;;8.15;7.00;;;17.40;93.00;;;;;;4988992;28;20026;-54
2023/05/21 01:57:51;;;;;;;9.60;7.20;;;17.50;93.00;;;;;;4987739;28;20064;-53
2023/05/21 02:00:17;;;;;;;8.27;7.32;;;17.50;93.00;;;;;;4967814;28;20039;-53
2023/05/21 02:02:42;;;;;;;7.35;6.65;;;17.40;93.00;;;;;;4975301;28;20055;-53
2023/05/21 02:05:08;;;;;;;8.23;6.75;;;17.50;93.00;;;;;;4982168;28;20062;-53
2023/05/21 02:07:36;;;;;;;7.88;7.00;;;17.40;93.00;;;;;;4988119;28;20042;-54
2023/05/21 02:10:02;;;;;;;9.02;7.03;;;17.40;93.00;;;;;;4985777;28;20086;-53
2023/05/21 02:12:28;;;;;;;10.80;6.85;;;17.40;93.00;;;;;;4986659;28;20038;-53
2023/05/21 02:14:55;;;;;;;8.23;6.78;;;17.40;93.10;;;;;;4976836;28;20086;-53
2023/05/21 02:17:21;;;;;;;7.80;6.97;;;17.40;93.00;;;;;;4986446;28;20113;-53
2023/05/21 02:19:47;;;;;;;8.30;6.55;;;17.40;93.30;;;;;;4986518;28;20041;-53
2023/05/21 02:22:12;;;;;;;12.32;7.28;;;17.40;93.00;;;;;;4986702;28;20031;-53
2023/05/21 02:24:38;;;;;;;6.95;6.32;;;17.30;93.00;;;;;;4987915;28;20044;-54
2023/05/21 02:27:05;;;;;;;10.52;6.75;;;17.40;93.00;;;;;;4985842;28;20034;-53
2023/05/21 02:29:31;;;;;;;10.40;7.00;;;17.40;93.00;;;;;;4987707;28;20039;-53
2023/05/21 02:31:56;;;;;;;9.13;6.80;;;17.30;93.00;;;;;;5002720;28;20059;-53
2023/05/21 02:34:23;;;;;;;9.05;7.05;;;17.30;93.00;;;;;;4985875;28;20042;-54
2023/05/21 02:36:51;;;;;;;9.55;7.03;;;17.30;93.10;;;;;;4987492;28;20058;-53
2023/05/21 02:39:17;;;;;;;7.63;6.80;;;17.20;93.10;;;;;;4986505;28;20042;-53
2023/05/21 02:41:43;;;;;;;7.82;7.00;;;17.30;93.40;;;;;;4985987;28;20460;-53
2023/05/21 02:44:09;;;;;;;7.95;6.75;;;17.30;93.10;;;;;;4986837;28;20105;-53
2023/05/21 02:46:34;;;;;;;9.32;6.78;;;17.30;93.10;;;;;;4986363;28;20349;-53
2023/05/21 02:49:00;;;;;;;7.07;6.38;;;17.30;93.10;;;;;;4988009;28;20035;-54
2023/05/21 02:51:25;;;;;;;7.55;6.85;;;17.20;93.20;;;;;;4985371;28;20027;-53
2023/05/21 02:53:51;;;;;;;9.18;7.07;;;17.20;93.50;;;;;;4986539;28;20050;-53
2023/05/21 02:56:17;;;;;;;8.82;6.93;;;17.20;93.20;;;;;;4987251;28;20435;-54
2023/05/21 02:58:43;;;;;;;7.95;6.70;;;17.20;93.20;;;;;;4985282;28;20035;-54
2023/05/21 03:01:08;;;;;;;10.05;7.15;;;17.20;93.20;;;;;;4985844;28;20026;-53
2023/05/21 03:03:34;;;;;;;8.27;7.45;;;17.20;93.30;;;;;;4987983;28;20035;-53
2023/05/21 03:06:00;;;;;;;8.05;6.72;;;17.10;93.20;;;;;;4986790;28;20046;-53
2023/05/21 03:08:25;;;;;;;10.90;6.78;;;17.10;93.20;;;;;;5002486;28;20045;-53
2023/05/21 03:10:51;;;;;;;8.77;6.82;;;17.10;93.30;;;;;;4984594;28;20037;-53
2023/05/21 03:13:16;;;;;;;8.98;7.10;;;17.10;93.30;;;;;;4986410;28;20046;-53
2023/05/21 03:15:42;;;;;;;7.50;6.80;;;17.10;93.40;;;;;;4986881;28;20030;-53
2023/05/21 03:18:09;;;;;;;7.32;6.30;;;17.10;93.40;;;;;;4986074;28;20035;-53
2023/05/21 03:20:34;;;;;;;7.40;6.68;;;17.00;93.40;;;;;;4987053;28;20050;-53
2023/05/21 03:23:03;;;;;;;8.70;6.80;;;17.00;93.40;;;;;;4987456;28;20057;-53
2023/05/21 03:25:29;;;;;;;8.98;7.18;;;17.00;93.40;;;;;;4985210;28;20047;-53
2023/05/21 03:27:54;;;;;;;8.40;7.00;;;17.00;93.40;;;;;;5000804;28;20031;-53
2023/05/21 03:30:20;;;;;;;8.32;7.00;;;17.00;93.40;;;;;;4985057;28;20022;-54
2023/05/21 03:32:46;;;;;;;8.27;7.07;;;17.00;93.40;;;;;;4988002;28;20090;-53
2023/05/21 03:35:12;;;;;;;7.10;6.43;;;17.00;93.40;;;;;;4985513;28;20034;-53
2023/05/21 03:37:37;;;;;;;8.55;7.22;;;16.90;93.50;;;;;;4985330;28;20039;-53
2023/05/21 03:40:03;;;;;;;7.20;6.50;;;17.00;93.50;;;;;;4985581;28;20041;-53
2023/05/21 03:42:29;;;;;;;7.50;6.70;;;16.90;93.50;;;;;;4984578;28;20035;-53
2023/05/21 03:44:54;;;;;;;7.38;6.68;;;16.90;93.50;;;;;;4983941;28;20030;-53
2023/05/21 03:47:20;;;;;;;9.05;7.25;;;16.90;93.60;;;;;;4985988;28;20042;-53
2023/05/21 03:49:45;;;;;;;8.95;6.47;;;16.90;93.50;;;;;;4986263;28;20037;-54
2023/05/21 03:52:11;;;;;;;10.43;6.65;;;16.90;93.60;;;;;;4984991;28;20054;-53
2023/05/21 03:54:36;;;;;;;7.93;6.97;;;16.90;93.60;;;;;;4986188;28;20038;-53
2023/05/21 03:57:02;;;;;;;7.55;6.85;;;16.80;93.60;;;;;;4985874;28;20035;-53
2023/05/21 03:59:27;;;;;;;7.25;6.55;;;16.80;93.60;;;;;;4984686;28;20049;-53
2023/05/21 04:01:53;;;;;;;7.45;6.75;;;16.80;93.50;;;;;;4984008;28;20115;-53
2023/05/21 04:04:19;;;;;;;9.77;7.22;;;16.80;93.60;;;;;;4986528;28;20031;-53
2023/05/21 04:06:44;;;;;;;9.25;6.35;;;16.80;93.60;;;;;;4985411;28;20098;-54
2023/05/21 04:09:10;;;;;;;7.07;6.35;;;16.80;93.60;;;;;;4984951;28;20031;-53
2023/05/21 04:11:36;;;;;;;8.07;6.75;;;16.80;93.60;;;;;;4984756;28;20026;-53
2023/05/21 04:14:01;;;;;;;7.32;6.63;;;16.70;93.60;;;;;;4984547;28;20133;-53
2023/05/21 04:16:27;;;;;;;8.35;7.03;;;16.70;93.60;;;;;;4984148;28;20031;-53
2023/05/21 04:18:54;;;;;;;7.15;6.45;;;16.70;93.60;;;;;;4983627;28;20109;-53
2023/05/21 04:21:20;;;;;;;7.40;6.65;;;16.70;93.60;;;;;;4985621;28;20031;-53
2023/05/21 04:23:45;;;;;;;7.82;6.78;;;16.70;93.60;;;;;;4985091;28;20034;-53
2023/05/21 04:26:11;;;;;;;8.63;6.50;;;16.70;93.60;;;;;;4965286;28;20036;-53
2023/05/21 04:28:40;;;;;;;7.95;7.20;;;16.70;93.70;;;;;;4981048;28;20058;-53
2023/05/21 04:31:07;;;;;;;7.30;6.57;;;16.60;93.70;;;;;;4985858;28;20027;-53
2023/05/21 04:33:34;;;;;;;9.38;7.10;;;16.60;93.70;;;;;;5016973;28;20145;-53
2023/05/21 04:36:00;;;;;;;7.63;6.93;;;16.60;93.70;;;;;;4985782;28;20075;-53
2023/05/21 04:38:25;;;;;;;7.82;7.00;;;16.60;93.80;;;;;;4985768;28;20041;-53
2023/05/21 04:40:51;;;;;;;8.80;7.05;;;16.60;93.80;;;;;;4985574;28;20042;-53
2023/05/21 04:43:17;;;;;;;7.80;7.00;;;16.60;93.80;;;;;;4984234;28;20042;-53
2023/05/21 04:45:42;;;;;;;8.32;6.70;;;16.60;93.80;;;;;;4984398;28;20030;-53
2023/05/21 04:48:08;;;;;;;7.05;6.35;;;16.60;93.70;;;;;;4984402;28;20078;-53
2023/05/21 04:50:33;;;;;;;7.60;6.85;;;16.60;93.70;;;;;;4985518;28;20380;-53
2023/05/21 04:52:59;;;;;;;7.60;6.82;;;16.60;93.70;;;;;;4968486;28;20062;-54
2023/05/21 04:55:26;;;;;;;7.47;6.22;;;16.60;93.80;;;;;;4985070;28;20491;-53
2023/05/21 04:57:52;;;;;;;10.43;7.15;;;16.50;93.80;;;;;;4984969;28;20090;-53
2023/05/21 05:00:17;;;;;;;7.30;6.60;;;16.60;93.80;;;;;;4982944;28;20054;-53
2023/05/21 05:02:43;;;;;;;7.25;6.55;;;16.50;93.80;;;;;;4984560;28;20034;-53
2023/05/21 05:05:09;;;;;;;7.78;6.97;;;16.60;93.80;;;;;;4983897;28;20031;-53
2023/05/21 05:07:34;;;;;;;8.30;7.40;;;16.60;93.80;;;;;;4985378;28;20042;-53
2023/05/21 05:10:00;;;;;;;7.72;7.03;;;16.50;93.80;;;;;;4984994;28;20031;-53
2023/05/21 05:12:26;;;;;;;8.57;6.90;;;16.50;93.80;;;;;;4985998;28;20042;-53
2023/05/21 05:14:51;;;;;;;8.40;7.38;;;16.50;93.80;;;;;;4984763;28;20105;-53
2023/05/21 05:17:17;;;;;;;8.82;7.15;;;16.50;93.90;;;;;;4984683;28;20046;-52
2023/05/21 05:19:43;;;;;;;8.77;6.93;;;16.50;93.90;;;;;;4984237;28;20504;-54
2023/05/21 05:22:09;;;;;;;9.38;6.95;;;16.50;93.90;;;;;;4983629;28;20039;-53
2023/05/21 05:24:34;;;;;;;10.50;7.25;;;16.50;93.90;;;;;;5000250;28;20035;-53
2023/05/21 05:27:00;;;;;;;7.40;6.68;;;16.50;93.80;;;;;;4986326;28;20030;-53
2023/05/21 05:29:25;;;;;;;7.50;6.80;;;16.50;93.80;;;;;;4984910;28;20089;-54
2023/05/21 05:31:51;;;;;;;9.40;6.68;;;16.50;93.80;;;;;;4985132;28;20034;-53
2023/05/21 05:34:16;;;;;;;7.63;6.85;;;16.60;93.80;;;;;;4983926;28;20023;-53
2023/05/21 05:36:42;;;;;;;7.03;6.32;;;16.60;93.80;;;;;;4985766;28;20042;-53
2023/05/21 05:39:07;;;;;;;8.73;7.30;;;16.50;93.70;;;;;;4967411;28;20038;-53
2023/05/21 05:41:33;;;;;;;8.60;7.43;;;16.50;93.70;;;;;;4988758;28;20061;-53
2023/05/21 05:43:58;;;;;;;7.90;7.07;;;16.50;93.80;;;;;;4987406;28;20035;-53
2023/05/21 05:46:24;;;;;;;8.30;7.40;;;16.50;93.70;;;;;;4987943;28;20030;-53
2023/05/21 05:48:49;;;;;;;8.48;7.65;;;16.50;93.80;;;;;;4986624;28;20399;-53
2023/05/21 05:51:15;;;;;;;8.10;7.40;;;16.50;93.80;;;;;;4986834;28;20027;-53
2023/05/21 05:53:41;;;;;;;7.50;6.80;;;16.50;93.80;;;;;;4987914;28;20035;-53
2023/05/21 05:56:07;;;;;;;7.80;7.00;;;16.50;93.80;;;;;;4987301;28;20490;-53
2023/05/21 05:58:32;;;;;;;9.88;7.95;;;16.50;93.80;;;;;;4986105;28;20499;-53
2023/05/21 06:00:58;;;;;;;7.60;6.90;;;16.50;93.80;;;;;;4987372;28;20103;-53
2023/05/21 06:03:23;;;;;;;9.13;7.05;;;16.50;94.10;;;;;;4988130;28;20083;-53
2023/05/21 06:05:50;;;;;;;9.80;7.68;;;16.50;93.80;;;;;;4988348;28;20033;-53
2023/05/21 06:08:15;;;;;;;9.15;7.22;;;16.50;93.80;;;;;;4987496;28;20030;-53
2023/05/21 06:10:41;;;;;;;9.82;7.55;;;16.50;93.70;;;;;;5018907;28;20031;-53
2023/05/21 06:13:06;;;;;;;8.13;7.22;;;16.50;93.70;;;;;;5002920;28;20110;-54
2023/05/21 06:15:32;;;;;;;8.50;7.70;;;16.50;93.70;;;;;;4988041;28;20476;-53
2023/05/21 06:17:58;;;;;;;7.97;7.18;;;16.50;93.70;;;;;;4986480;28;20054;-53
2023/05/21 06:20:23;;;;;;;8.57;7.35;;;16.60;93.70;;;;;;4986167;28;20034;-54
2023/05/21 06:22:49;;;;;;;8.32;7.35;;;16.50;93.70;;;;;;4986555;28;20077;-54
2023/05/21 06:25:15;;;;;;;8.65;7.85;;;16.60;93.70;;;;;;4987725;28;20027;-53
2023/05/21 06:27:40;;;;;;;8.65;7.68;;;16.60;93.60;;;;;;4986289;28;20065;-53
2023/05/21 06:30:07;;;;;;;8.57;7.78;;;16.60;93.60;;;;;;4985496;28;20242;-53
2023/05/21 06:32:32;;;;;;;8.70;7.88;;;16.60;93.70;;;;;;4987942;28;20073;-53
2023/05/21 06:34:58;;;;;;;8.88;7.97;;;16.70;93.60;;;;;;4987760;28;20027;-53
2023/05/21 06:37:23;;;;;;;8.98;8.07;;;16.70;93.60;;;;;;4985988;28;20027;-53
2023/05/21 06:39:49;;;;;;;8.50;7.78;;;16.70;93.60;;;;;;4985500;28;20091;-53
2023/05/21 06:42:15;;;;;;;8.60;7.70;;;16.70;93.60;;;;;;4988133;28;20031;-53
2023/05/21 06:44:40;;;;;;;9.35;8.52;;;16.70;93.60;;;;;;4987586;28;20122;-53
2023/05/21 06:47:06;;;;;;;9.00;7.97;;;16.70;93.60;;;;;;4986743;28;20042;-54
2023/05/21 06:49:32;;;;;;;9.25;8.15;;;16.70;93.60;;;;;;4985349;28;20041;-53
2023/05/21 06:51:57;;;;;;;8.52;7.72;;;16.70;93.50;;;;;;4985001;28;20094;-53
2023/05/21 06:54:23;;;;;;;8.95;8.00;;;16.80;93.40;;;;;;4986594;28;20475;-53
2023/05/21 06:56:48;;;;;;;9.90;9.00;;;16.80;93.40;;;;;;4985775;28;20445;-53
2023/05/21 06:59:14;;;;;;;10.27;8.38;;;16.80;93.40;;;;;;4986973;28;20031;-53
2023/05/21 07:01:41;;;;;;;10.10;8.90;;;16.80;93.50;;;;;;4986904;28;20041;-53
2023/05/21 07:04:07;;;;;;;10.85;8.82;;;16.80;93.60;;;;;;4986139;28;20097;-53
2023/05/21 07:06:33;;;;;;;9.23;8.32;;;16.80;93.60;;;;;;4985569;28;20031;-53
2023/05/21 07:08:59;;;;;;;10.30;8.88;;;16.80;93.60;;;;;;4986877;28;20031;-53
2023/05/21 07:11:27;;;;;;;10.15;8.50;;;16.80;93.60;;;;;;4984716;28;20027;-53
2023/05/21 07:13:53;;;;;;;9.32;8.38;;;16.90;93.60;;;;;;4975072;28;20020;-54
2023/05/21 07:16:19;;;;;;;10.52;8.38;;;16.80;93.50;;;;;;4982674;28;20027;-53
2023/05/21 07:18:45;;;;;;;9.20;8.32;;;16.90;93.50;;;;;;4984777;28;20034;-53
2023/05/21 07:21:10;;;;;;;8.50;7.70;;;16.90;93.50;;;;;;4985561;28;20074;-53
2023/05/21 07:23:36;;;;;;;8.63;7.78;;;16.90;93.40;;;;;;4984238;28;20133;-53
2023/05/21 07:26:01;;;;;;;8.65;7.80;;;16.90;93.30;;;;;;5016158;28;20026;-53
2023/05/21 07:28:27;;;;;;;10.15;7.53;;;16.90;93.30;;;;;;4985835;28;20038;-53
2023/05/21 07:30:52;;;;;;;9.35;8.45;;;16.90;93.30;;;;;;4985778;28;20150;-53
2023/05/21 07:33:19;;;;;;;8.65;7.85;;;17.00;93.40;;;;;;4985740;28;20034;-54
2023/05/21 07:35:45;;;;;;;11.18;8.23;;;16.90;93.30;;;;;;4984500;28;20030;-53
2023/05/21 07:38:10;;;;;;;8.98;8.18;;;17.00;93.40;;;;;;4986910;28;20031;-53
2023/05/21 07:40:36;;;;;;;9.75;8.70;;;17.00;93.50;;;;;;4969003;28;20030;-53
2023/05/21 07:43:01;;;;;;;9.05;8.25;;;17.00;93.50;;;;;;4984432;28;20108;-54
2023/05/21 07:45:27;;;;;;;10.32;8.73;;;17.00;93.60;;;;;;4986535;28;20479;-53
2023/05/21 07:47:52;;;;;;;9.05;8.20;;;17.00;93.60;;;;;;4985349;28;20049;-54
2023/05/21 07:50:18;;;;;;;10.40;9.35;;;17.00;93.60;;;;;;4984873;28;20035;-53
2023/05/21 07:52:43;;;;;;;9.55;8.65;;;17.10;93.70;;;;;;4984474;28;20054;-54
2023/05/21 07:55:09;;;;;;;9.15;8.32;;;17.10;93.60;;;;;;4986008;28;20038;-53
2023/05/21 07:57:35;;;;;;;9.18;8.32;;;17.10;93.70;;;;;;4986160;28;20035;-54
2023/05/21 08:00:01;;;;;;;9.63;8.70;;;17.10;93.70;;;;;;4983820;28;20054;-53
2023/05/21 08:02:26;;;;;;;20.85;10.20;;;17.10;93.70;;;;;;4984655;28;20042;-53
2023/05/21 08:04:53;;;;;;;12.82;9.65;;;17.20;93.80;;;;;;4984518;28;20018;-53
2023/05/21 08:07:20;;;;;;;14.70;9.90;;;17.20;94.00;;;;;;4984879;28;20193;-53
2023/05/21 08:09:46;;;;;;;10.98;9.32;;;17.20;94.10;;;;;;4984146;28;20049;-54
2023/05/21 08:12:14;;;;;;;9.68;8.75;;;17.20;94.10;;;;;;4984393;28;20098;-53
2023/05/21 08:14:42;;;;;;;11.20;8.93;;;17.30;94.00;;;;;;4984319;28;20046;-53
2023/05/21 08:17:11;;;;;;;10.30;9.35;;;17.30;93.90;;;;;;4984303;28;20039;-53
2023/05/21 08:19:36;;;;;;;17.45;9.50;;;17.30;94.00;;;;;;4984043;28;20046;-53
2023/05/21 08:22:02;;;;;;;11.88;9.30;;;17.30;94.00;;;;;;4984240;28;20031;-53
2023/05/21 08:24:27;;;;;;;20.67;10.68;;;17.30;94.00;;;;;;4985694;28;20027;-53
2023/05/21 08:26:53;;;;;;;45.50;14.45;;;17.40;94.20;;;;;;4985865;28;20043;-53
2023/05/21 08:29:19;;;;;;;23.98;11.45;;;17.40;94.20;;;;;;4985112;28;20082;-53
2023/05/21 08:31:44;;;;;;;29.67;11.57;;;17.40;94.40;;;;;;4983981;28;20026;-53
2023/05/21 08:34:10;;;;;;;42.88;13.35;;;17.40;94.50;;;;;;4982975;28;20035;-53
2023/05/21 08:36:36;;;;;;;24.45;12.20;;;17.40;94.40;;;;;;4982984;28;20047;-53
2023/05/21 08:39:02;;;;;;;28.85;12.65;;;17.50;94.50;;;;;;4964525;28;20035;-53
2023/05/21 08:41:27;;;;;;;33.92;12.60;;;17.50;94.50;;;;;;4975898;28;20522;-53
2023/05/21 08:43:56;;;;;;;39.55;13.82;;;17.50;94.70;;;;;;4984132;28;20034;-54
2023/05/21 08:46:22;;;;;;;32.40;12.88;;;17.60;94.90;;;;;;4967163;28;20029;-53
2023/05/21 08:48:48;;;;;;;36.22;13.25;;;17.60;94.90;;;;;;4967680;28;20427;-53
2023/05/21 08:51:13;;;;;;;34.88;13.20;;;17.60;95.00;;;;;;4984948;28;20027;-53
2023/05/21 08:53:39;;;;;;;46.88;14.05;;;17.70;95.00;;;;;;4984388;28;20037;-53
2023/05/21 08:56:05;;;;;;;36.17;13.15;;;17.70;94.90;;;;;;4983331;28;20456;-53
2023/05/21 08:58:32;;;;;;;48.45;15.50;;;17.70;94.90;;;;;;4983132;28;20026;-54
2023/05/21 09:00:57;;;;;;;64.20;15.45;;;17.70;95.00;;;;;;4984682;28;20481;-53
2023/05/21 09:03:23;;;;;;;46.53;13.65;;;17.80;95.10;;;;;;4982194;28;20039;-53
2023/05/21 09:05:50;;;;;;;44.45;14.30;;;17.80;95.10;;;;;;4983642;28;20136;-53
2023/05/21 09:08:21;;;;;;;51.03;14.10;;;17.80;95.00;;;;;;4984146;28;20065;-54
2023/05/21 09:10:49;;;;;;;46.78;14.50;;;17.90;94.90;;;;;;4984132;28;20073;-53
2023/05/21 09:13:16;;;;;;;61.90;15.23;;;17.90;94.90;;;;;;4983355;28;20041;-53
2023/05/21 09:15:41;;;;;;;45.60;14.75;;;17.90;94.90;;;;;;4985802;28;20093;-53
2023/05/21 09:18:07;;;;;;;58.63;13.65;;;18.00;94.70;;;;;;4987753;28;20046;-53
2023/05/21 09:20:33;;;;;;;51.22;15.60;;;18.00;94.90;;;;;;4986786;28;20057;-53
2023/05/21 09:23:02;;;;;;;67.35;16.23;;;18.10;94.60;;;;;;4988146;28;20030;-53
2023/05/21 09:25:28;;;;;;;77.82;15.90;;;18.10;94.60;;;;;;4987307;28;20134;-53
2023/05/21 09:27:57;;;;;;;77.05;16.70;;;18.10;94.50;;;;;;4987242;28;20041;-53
2023/05/21 09:30:22;;;;;;;68.78;17.00;;;18.20;94.50;;;;;;4987078;28;20042;-53
2023/05/21 09:32:58;;;;;;;88.90;17.58;;;18.20;94.30;;;;;;4987803;28;20031;-53
2023/05/21 09:35:24;;;;;;;75.10;17.60;;;18.30;94.10;;;;;;4965846;28;20027;-53
2023/05/21 09:37:51;;;;;;;82.75;18.48;;;18.30;94.10;;;;;;4979563;28;20032;-53
2023/05/21 09:40:21;;;;;;;104.55;17.92;;;18.40;94.10;;;;;;4968436;28;20136;-51
2023/05/21 09:42:47;;;;;;;79.97;16.63;;;18.40;94.20;;;;;;4987311;28;20049;-52
2023/05/21 09:45:19;;;;;;;95.55;18.17;;;18.40;93.90;;;;;;4987312;28;20049;-53
2023/05/21 09:47:45;;;;;;;88.00;16.42;;;18.50;93.90;;;;;;4988396;28;20034;-53
2023/05/21 09:50:31;;;;;;;61.05;14.82;;;18.50;93.80;;;;;;4984156;28;20054;-53
2023/05/21 09:52:57;;;;;;;83.05;15.95;;;18.50;93.70;;;;;;4981038;28;20039;-53
2023/05/21 09:55:27;;;;;;;70.07;15.38;;;18.60;93.70;;;;;;4987724;28;20482;-53
2023/05/21 09:57:52;;;;;;;63.88;14.90;;;18.60;93.60;;;;;;4986560;28;20035;-53
2023/05/21 10:00:21;;;;;;;74.00;15.57;;;18.70;93.40;;;;;;4985906;28;20031;-53
2023/05/21 10:02:48;;;;;;;75.72;16.38;;;18.70;93.20;;;;;;4985194;28;20058;-56
2023/05/21 10:05:15;;;;;;;55.72;13.38;;;18.70;93.10;;;;;;4969834;28;20046;-55
2023/05/21 10:07:50;;;;;;;49.42;14.13;;;18.70;93.00;;;;;;4986920;28;20047;-54
2023/05/21 10:10:19;;;;;;;58.65;15.38;;;18.80;92.80;;;;;;4986213;28;20026;-54
2023/05/21 10:12:53;;;;;;;54.20;13.43;;;18.80;92.70;;;;;;4986764;28;20043;-54
2023/05/21 10:15:21;;;;;;;61.55;13.73;;;18.90;92.60;;;;;;4986416;28;20949;-53
2023/05/21 10:17:47;;;;;;;63.00;13.77;;;18.90;92.50;;;;;;4984619;28;20042;-54
2023/05/21 10:20:12;;;;;;;44.10;12.52;;;18.90;92.50;;;;;;4971514;28;20082;-54
2023/05/21 10:22:39;;;;;;;53.50;13.35;;;19.00;92.40;;;;;;4985296;28;20348;-54
2023/05/21 10:25:06;;;;;;;61.03;13.52;;;19.00;92.30;;;;;;4991371;28;20037;-54
2023/05/21 10:27:32;;;;;;;58.10;14.18;;;19.00;92.30;;;;;;4984927;28;20085;-54
2023/05/21 10:29:58;;;;;;;66.57;14.48;;;19.10;92.30;;;;;;4985319;28;20034;-54
2023/05/21 10:32:24;;;;;;;59.60;13.57;;;19.20;92.10;;;;;;4985468;28;20050;-54
2023/05/21 10:34:49;;;;;;;57.10;13.65;;;19.20;92.00;;;;;;4986105;28;20034;-54
2023/05/21 10:37:15;;;;;;;52.83;12.85;;;19.30;92.00;;;;;;4988371;28;20027;-54
2023/05/21 10:39:41;;;;;;;50.25;12.65;;;19.30;91.90;;;;;;4967375;28;20034;-54
2023/05/21 10:42:28;;;;;;;68.45;12.88;;;19.40;91.90;;;;;;4981322;28;20047;-54
2023/05/21 10:45:22;;;;;;;50.58;12.70;;;19.40;91.70;;;;;;5025584;28;20034;-54
2023/05/21 10:48:12;;;;;;;52.72;12.77;;;19.50;91.70;;;;;;4988191;28;20038;-54
2023/05/21 10:50:53;;;;;;;49.47;12.88;;;19.60;91.70;;;;;;4973324;28;20027;-54
2023/05/21 10:53:32;;;;;;;61.10;14.13;;;19.60;91.60;;;;;;4989995;28;20388;-54
2023/05/21 10:56:18;;;;;;;58.15;13.45;;;19.70;91.50;;;;;;4991080;28;20026;-54
2023/05/21 10:59:20;;;;;;;67.50;14.98;;;19.80;91.40;;;;;;4991285;28;20411;-54
2023/05/21 11:01:47;;;;;;;56.00;14.10;;;19.90;91.30;;;;;;4986411;28;20086;-55
2023/05/21 11:04:14;;;;;;;67.10;15.15;;;20.00;91.20;;;;;;4989801;28;20031;-54
2023/05/21 11:06:40;;;;;;;69.43;14.45;;;20.00;91.10;;;;;;4989404;28;20081;-54
2023/05/21 11:09:12;;;;;;;64.05;14.50;;;20.20;91.00;;;;;;4992104;28;20459;-54
2023/05/21 11:11:47;;;;;;;76.70;15.60;;;20.20;90.80;;;;;;4978900;28;20043;-54
2023/05/21 11:14:38;;;;;;;63.63;14.73;;;20.30;90.70;;;;;;4989385;28;20026;-54
2023/05/21 11:17:18;;;;;;;61.05;14.43;;;20.40;90.50;;;;;;4985221;28;20034;-54
2023/05/21 11:19:46;;;;;;;76.47;15.27;;;20.50;90.40;;;;;;4986823;28;20031;-54
2023/05/21 11:22:25;;;;;;;80.20;16.13;;;20.60;90.20;;;;;;4970200;28;20030;-55
2023/05/21 11:25:00;;;;;;;82.88;17.38;;;20.70;90.00;;;;;;4968173;28;20034;-54
2023/05/21 11:27:33;;;;;;;91.18;16.73;;;20.80;89.60;;;;;;4986325;28;20141;-54
2023/05/21 11:29:58;;;;;;;65.45;15.85;;;20.90;89.20;;;;;;4988887;28;20063;-55
2023/05/21 11:32:24;;;;;;;73.63;15.80;;;21.00;88.90;;;;;;4985488;28;20057;-54
2023/05/21 11:34:49;;;;;;;69.25;14.75;;;21.00;88.30;;;;;;4989115;28;20022;-54
2023/05/21 11:37:39;;;;;;;78.95;15.68;;;21.10;88.10;;;;;;4992683;28;20046;-55
2023/05/21 11:40:24;;;;;;;76.85;14.80;;;21.20;88.10;;;;;;4984486;28;20030;-54
2023/05/21 11:42:51;;;;;;;77.10;14.40;;;21.30;87.30;;;;;;4984206;28;20034;-54
2023/05/21 11:45:18;;;;;;;78.55;14.50;;;21.40;86.90;;;;;;4987103;28;20062;-55
2023/05/21 11:47:44;;;;;;;75.35;15.52;;;21.40;86.40;;;;;;4985468;28;20085;-54
2023/05/21 11:50:14;;;;;;;91.80;15.40;;;21.50;85.90;;;;;;4990392;28;20050;-55
2023/05/21 11:52:40;;;;;;;116.90;16.85;;;21.60;85.80;;;;;;4987023;28;20039;-55
2023/05/21 11:55:07;;;;;;;84.00;15.98;;;21.70;85.20;;;;;;4983453;28;20099;-54
2023/05/21 11:57:32;;;;;;;112.40;17.05;;;21.70;85.10;;;;;;4976607;28;20035;-55
2023/05/21 11:59:58;;;;;;;74.85;13.40;;;21.70;84.30;;;;;;4983226;28;20034;-54
2023/05/21 12:02:29;;;;;;;78.63;14.15;;;21.80;84.00;;;;;;4982914;28;20105;-55
2023/05/21 12:04:58;;;;;;;92.68;14.93;;;21.80;83.50;;;;;;4988535;28;20066;-54
2023/05/21 12:07:27;;;;;;;74.65;14.10;;;21.90;83.00;;;;;;4971958;28;20085;-54
2023/05/21 12:09:52;;;;;;;93.68;14.15;;;22.00;82.80;;;;;;4984358;28;20054;-54
2023/05/21 12:12:20;;;;;;;76.00;14.30;;;22.00;82.00;;;;;;4989814;28;20033;-54
2023/05/21 12:14:47;;;;;;;98.03;15.70;;;22.10;82.00;;;;;;4985039;28;20392;-54
2023/05/21 12:17:20;;;;;;;59.20;12.40;;;22.10;81.20;;;;;;4983216;28;20049;-54
2023/05/21 12:19:46;;;;;;;89.53;13.65;;;22.20;80.80;;;;;;4993052;28;20019;-55
2023/05/21 12:22:12;;;;;;;70.53;13.32;;;22.30;80.60;;;;;;4985402;28;20041;-54
2023/05/21 12:24:37;;;;;;;67.75;12.23;;;22.30;80.10;;;;;;4984569;28;20054;-55
2023/05/21 12:27:08;;;;;;;52.70;11.00;;;22.40;79.90;;;;;;4989881;28;20034;-54
2023/05/21 12:29:34;;;;;;;66.35;9.55;;;22.40;79.40;;;;;;4989567;28;20057;-55
2023/05/21 12:32:00;;;;;;;98.63;14.90;;;22.50;79.10;;;;;;4990887;28;20043;-55
2023/05/21 12:34:45;;;;;;;71.78;11.55;;;22.60;78.60;;;;;;4981947;28;20022;-54
2023/05/21 12:37:14;;;;;;;106.70;15.87;;;22.60;78.30;;;;;;4982120;28;20041;-54
2023/05/21 12:39:41;;;;;;;71.60;14.00;;;22.70;78.50;;;;;;4985430;28;20298;-54